Date,TemperatureHighF,TemperatureAvgF,TemperatureLowF,DewpointHighF,DewpointAvgF,DewpointLowF,HumidityHigh,HumidityAvg,HumidityLow,PressureMaxIn,PressureMinIn,WindSpeedMaxMPH,WindSpeedAvgMPH,GustSpeedMaxMPH,PrecipitationSumIn
2013-3-1,75.5,53.4,39.7,43.5,29.4,20.1,69,42,13,30.23,30.06,22,2,23,0.00
2013-3-2,68.5,54.2,41.2,40.6,30.3,19.4,77,45,22,30.36,30.18,26,4,26,0.00
2013-3-3,75.7,58.2,37.1,53.4,40.3,19.6,75,53,29,30.23,29.94,28,10,28,0.00
2013-3-4,92.0,71.0,59.5,62.4,57.0,48.2,85,65,23,29.94,29.68,30,16,30,0.00
2013-3-5,73.3,62.7,44.9,63.2,41.9,19.1,94,53,19,30.26,29.73,42,8,42,0.00
2013-3-6,65.7,51.1,34.8,44.0,29.9,18.8,71,46,25,30.39,30.17,26,7,26,0.00
2013-3-7,75.7,61.4,45.3,61.3,52.6,37.0,86,73,58,30.18,30.05,32,11,32,0.00
2013-3-8,76.0,69.0,64.7,67.5,64.2,60.9,91,85,74,30.06,29.95,34,15,34,0.00
2013-3-9,77.3,71.5,68.7,68.5,66.3,64.2,89,84,74,29.95,29.59,35,18,35,0.00
2013-3-10,81.1,70.4,56.0,68.3,59.0,35.9,94,72,23,30.03,29.53,34,11,34,0.10
2013-3-11,74.7,59.3,45.1,40.3,30.7,20.5,71,39,16,30.11,29.95,21,3,21,0.00
2013-3-12,51.5,50.4,49.1,37.9,30.1,21.3,63,46,33,30.03,30.02,6,1,6,0.00
2013-3-13,76.6,65.1,46.2,57.1,48.1,38.1,91,57,28,30.35,30.25,25,10,25,0.00
2013-3-14,57.1,55.4,51.5,49.6,48.2,44.9,81,77,72,30.30,30.26,7,3,7,0.00
2013-3-15,69.4,67.3,65.8,60.0,59.4,58.4,80,76,69,30.01,29.98,24,16,24,0.00
2013-3-16,80.5,70.9,63.9,65.9,63.2,59.3,92,77,59,29.99,29.73,33,16,33,0.00
2013-3-17,84.2,73.7,66.3,69.9,66.8,63.6,93,80,61,29.78,29.59,25,14,25,0.00
2013-3-18,87.2,74.6,67.6,69.9,67.3,64.0,92,79,54,29.82,29.64,22,8,22,0.00
2013-3-19,80.6,69.8,57.7,69.0,64.2,54.1,92,83,66,29.92,29.75,22,9,22,0.00
2013-3-20,78.7,70.5,61.8,68.0,57.2,45.5,91,65,43,30.08,29.83,37,16,37,0.00
2013-3-21,75.3,69.8,62.2,66.4,61.4,52.3,87,75,60,29.98,29.61,24,12,25,0.00
2013-3-22,71.3,71.0,70.5,67.6,67.3,66.4,89,88,87,29.63,29.58,24,14,24,0.00
2013-3-27,68.0,64.9,53.6,57.8,51.7,43.6,77,63,51,30.26,30.13,24,14,24,0.00
2013-3-28,74.0,68.3,65.0,63.0,60.4,57.3,86,76,67,30.15,30.07,29,13,29,0.00
2013-3-29,78.3,71.1,62.5,66.2,63.9,60.1,93,79,62,30.11,29.99,30,13,30,0.00
2013-3-30,83.2,72.5,65.0,70.3,66.4,62.3,93,82,63,30.04,29.86,26,12,26,0.00
2013-3-31,83.5,74.1,68.4,71.2,68.2,66.0,93,82,63,29.91,29.72,28,13,31,0.00